<?xml version="1.0" encoding="UTF-8" standalone="no" ?>
<gpx xmlns="http://www.topografix.com/GPX/1/1" xmlns:xsi="http://www.w3.org/2001/XMLSchema-instance" xsi:schemaLocation="http://www.topografix.com/GPX/1/1 http://www.topografix.com/GPX/1/1/gpx.xsd" version="1.1" creator="VisuGPX - https://www.visugpx.com">
  <metadata>
    <name>R 051 Menhirs</name>
  </metadata>
  <trk>
    <name><![CDATA[R 08_Menhirs (7)]]></name>
    <trkseg>
      <trkpt lat="46.47022" lon="-1.49397">
        <ele>47.1</ele>
        <time>2012-02-03T13:13:13Z</time>
      </trkpt>
      <trkpt lat="46.47023" lon="-1.49397">
        <ele>47.1</ele>
        <time>2012-02-03T13:13:32Z</time>
      </trkpt>
      <trkpt lat="46.47015" lon="-1.49414">
        <ele>47.1</ele>
        <time>2012-02-03T13:14:08Z</time>
      </trkpt>
      <trkpt lat="46.4701" lon="-1.4943">
        <ele>47.1</ele>
        <time>2012-02-03T13:14:20Z</time>
      </trkpt>
      <trkpt lat="46.46996" lon="-1.49449">
        <ele>47.1</ele>
        <time>2012-02-03T13:14:40Z</time>
      </trkpt>
      <trkpt lat="46.46983" lon="-1.49467">
        <ele>47.1</ele>
        <time>2012-02-03T13:14:54Z</time>
      </trkpt>
      <trkpt lat="46.46973" lon="-1.4948">
        <ele>47.1</ele>
        <time>2012-02-03T13:15:05Z</time>
      </trkpt>
      <trkpt lat="46.46942" lon="-1.49498">
        <ele>47.1</ele>
        <time>2012-02-03T13:15:48Z</time>
      </trkpt>
      <trkpt lat="46.46926" lon="-1.49512">
        <ele>47.1</ele>
        <time>2012-02-03T13:16:01Z</time>
      </trkpt>
      <trkpt lat="46.46908" lon="-1.49526">
        <ele>47.1</ele>
        <time>2012-02-03T13:16:13Z</time>
      </trkpt>
      <trkpt lat="46.46888" lon="-1.49537">
        <ele>47.1</ele>
        <time>2012-02-03T13:16:22Z</time>
      </trkpt>
      <trkpt lat="46.46875" lon="-1.49548">
        <ele>47.1</ele>
        <time>2012-02-03T13:16:39Z</time>
      </trkpt>
      <trkpt lat="46.46889" lon="-1.49558">
        <ele>43.4</ele>
        <time>2012-02-03T13:17:00Z</time>
      </trkpt>
      <trkpt lat="46.46903" lon="-1.49568">
        <ele>37.9</ele>
        <time>2012-02-03T13:17:15Z</time>
      </trkpt>
      <trkpt lat="46.46915" lon="-1.49572">
        <ele>37.1</ele>
        <time>2012-02-03T13:17:26Z</time>
      </trkpt>
      <trkpt lat="46.46934" lon="-1.4956">
        <ele>37.1</ele>
        <time>2012-02-03T13:17:44Z</time>
      </trkpt>
      <trkpt lat="46.46943" lon="-1.49542">
        <ele>37.1</ele>
        <time>2012-02-03T13:17:59Z</time>
      </trkpt>
      <trkpt lat="46.4695" lon="-1.49542">
        <ele>37.1</ele>
        <time>2012-02-03T13:18:08Z</time>
      </trkpt>
      <trkpt lat="46.46958" lon="-1.49534">
        <ele>37.1</ele>
        <time>2012-02-03T13:18:19Z</time>
      </trkpt>
      <trkpt lat="46.46962" lon="-1.49511">
        <ele>37.1</ele>
        <time>2012-02-03T13:18:31Z</time>
      </trkpt>
      <trkpt lat="46.46963" lon="-1.49507">
        <ele>37.1</ele>
        <time>2012-02-03T13:18:34Z</time>
      </trkpt>
      <trkpt lat="46.4697" lon="-1.49508">
        <ele>37.1</ele>
        <time>2012-02-03T13:18:43Z</time>
      </trkpt>
      <trkpt lat="46.4698" lon="-1.49529">
        <ele>37.1</ele>
        <time>2012-02-03T13:18:57Z</time>
      </trkpt>
      <trkpt lat="46.46986" lon="-1.49556">
        <ele>37.1</ele>
        <time>2012-02-03T13:19:12Z</time>
      </trkpt>
      <trkpt lat="46.46999" lon="-1.4958">
        <ele>37.1</ele>
        <time>2012-02-03T13:19:27Z</time>
      </trkpt>
      <trkpt lat="46.47009" lon="-1.49601">
        <ele>37.8</ele>
        <time>2012-02-03T13:19:36Z</time>
      </trkpt>
      <trkpt lat="46.47018" lon="-1.49617">
        <ele>42.6</ele>
        <time>2012-02-03T13:19:49Z</time>
      </trkpt>
      <trkpt lat="46.47026" lon="-1.49634">
        <ele>47.7</ele>
        <time>2012-02-03T13:20:03Z</time>
      </trkpt>
      <trkpt lat="46.47035" lon="-1.49657">
        <ele>49.1</ele>
        <time>2012-02-03T13:20:11Z</time>
      </trkpt>
      <trkpt lat="46.47042" lon="-1.49682">
        <ele>49.1</ele>
        <time>2012-02-03T13:20:22Z</time>
      </trkpt>
      <trkpt lat="46.47045" lon="-1.49702">
        <ele>49.1</ele>
        <time>2012-02-03T13:20:39Z</time>
      </trkpt>
      <trkpt lat="46.4704" lon="-1.49722">
        <ele>49.1</ele>
        <time>2012-02-03T13:20:48Z</time>
      </trkpt>
      <trkpt lat="46.4703" lon="-1.49745">
        <ele>49.1</ele>
        <time>2012-02-03T13:20:57Z</time>
      </trkpt>
      <trkpt lat="46.47023" lon="-1.49771">
        <ele>49.1</ele>
        <time>2012-02-03T13:21:10Z</time>
      </trkpt>
      <trkpt lat="46.47019" lon="-1.4979">
        <ele>49.1</ele>
        <time>2012-02-03T13:21:25Z</time>
      </trkpt>
      <trkpt lat="46.47015" lon="-1.49814">
        <ele>49.1</ele>
        <time>2012-02-03T13:21:40Z</time>
      </trkpt>
      <trkpt lat="46.47011" lon="-1.49834">
        <ele>49.1</ele>
        <time>2012-02-03T13:21:51Z</time>
      </trkpt>
      <trkpt lat="46.4701" lon="-1.49856">
        <ele>49.1</ele>
        <time>2012-02-03T13:22:02Z</time>
      </trkpt>
      <trkpt lat="46.4701" lon="-1.49877">
        <ele>49.1</ele>
        <time>2012-02-03T13:22:13Z</time>
      </trkpt>
      <trkpt lat="46.47011" lon="-1.49901">
        <ele>49.1</ele>
        <time>2012-02-03T13:22:24Z</time>
      </trkpt>
      <trkpt lat="46.47013" lon="-1.49921">
        <ele>49.1</ele>
        <time>2012-02-03T13:22:38Z</time>
      </trkpt>
      <trkpt lat="46.47014" lon="-1.49948">
        <ele>49.1</ele>
        <time>2012-02-03T13:22:49Z</time>
      </trkpt>
      <trkpt lat="46.47014" lon="-1.49974">
        <ele>49.1</ele>
        <time>2012-02-03T13:23:03Z</time>
      </trkpt>
      <trkpt lat="46.47013" lon="-1.49997">
        <ele>49.1</ele>
        <time>2012-02-03T13:23:17Z</time>
      </trkpt>
      <trkpt lat="46.47005" lon="-1.50019">
        <ele>49.1</ele>
        <time>2012-02-03T13:23:33Z</time>
      </trkpt>
      <trkpt lat="46.4699" lon="-1.50023">
        <ele>49.1</ele>
        <time>2012-02-03T13:23:49Z</time>
      </trkpt>
      <trkpt lat="46.46972" lon="-1.50026">
        <ele>45.8</ele>
        <time>2012-02-03T13:24:10Z</time>
      </trkpt>
      <trkpt lat="46.46956" lon="-1.50028">
        <ele>43.3</ele>
        <time>2012-02-03T13:24:21Z</time>
      </trkpt>
      <trkpt lat="46.4694" lon="-1.5003">
        <ele>40.2</ele>
        <time>2012-02-03T13:24:34Z</time>
      </trkpt>
      <trkpt lat="46.46918" lon="-1.50035">
        <ele>38.1</ele>
        <time>2012-02-03T13:24:53Z</time>
      </trkpt>
      <trkpt lat="46.46897" lon="-1.5004">
        <ele>38.1</ele>
        <time>2012-02-03T13:25:07Z</time>
      </trkpt>
      <trkpt lat="46.46884" lon="-1.50047">
        <ele>38.1</ele>
        <time>2012-02-03T13:25:13Z</time>
      </trkpt>
      <trkpt lat="46.46871" lon="-1.50058">
        <ele>38.1</ele>
        <time>2012-02-03T13:25:20Z</time>
      </trkpt>
      <trkpt lat="46.46861" lon="-1.50073">
        <ele>38.1</ele>
        <time>2012-02-03T13:25:29Z</time>
      </trkpt>
      <trkpt lat="46.46854" lon="-1.50091">
        <ele>38.1</ele>
        <time>2012-02-03T13:25:39Z</time>
      </trkpt>
      <trkpt lat="46.46852" lon="-1.50111">
        <ele>38.1</ele>
        <time>2012-02-03T13:25:48Z</time>
      </trkpt>
      <trkpt lat="46.46854" lon="-1.50131">
        <ele>38.1</ele>
        <time>2012-02-03T13:25:59Z</time>
      </trkpt>
      <trkpt lat="46.46856" lon="-1.50155">
        <ele>38.1</ele>
        <time>2012-02-03T13:26:14Z</time>
      </trkpt>
      <trkpt lat="46.46856" lon="-1.50177">
        <ele>38.1</ele>
        <time>2012-02-03T13:26:26Z</time>
      </trkpt>
      <trkpt lat="46.46853" lon="-1.50197">
        <ele>38.1</ele>
        <time>2012-02-03T13:26:37Z</time>
      </trkpt>
      <trkpt lat="46.46847" lon="-1.50221">
        <ele>38.1</ele>
        <time>2012-02-03T13:26:48Z</time>
      </trkpt>
      <trkpt lat="46.46838" lon="-1.50242">
        <ele>38.1</ele>
        <time>2012-02-03T13:26:59Z</time>
      </trkpt>
      <trkpt lat="46.46831" lon="-1.50261">
        <ele>38.1</ele>
        <time>2012-02-03T13:27:14Z</time>
      </trkpt>
      <trkpt lat="46.46825" lon="-1.50281">
        <ele>38.1</ele>
        <time>2012-02-03T13:27:26Z</time>
      </trkpt>
      <trkpt lat="46.46816" lon="-1.50306">
        <ele>38.1</ele>
        <time>2012-02-03T13:27:37Z</time>
      </trkpt>
      <trkpt lat="46.46807" lon="-1.50325">
        <ele>38.1</ele>
        <time>2012-02-03T13:27:51Z</time>
      </trkpt>
      <trkpt lat="46.46801" lon="-1.50345">
        <ele>38.1</ele>
        <time>2012-02-03T13:28:02Z</time>
      </trkpt>
      <trkpt lat="46.4679" lon="-1.50367">
        <ele>38.1</ele>
        <time>2012-02-03T13:28:13Z</time>
      </trkpt>
      <trkpt lat="46.46781" lon="-1.50384">
        <ele>38.1</ele>
        <time>2012-02-03T13:28:27Z</time>
      </trkpt>
      <trkpt lat="46.46773" lon="-1.50401">
        <ele>38.1</ele>
        <time>2012-02-03T13:28:39Z</time>
      </trkpt>
      <trkpt lat="46.46765" lon="-1.50419">
        <ele>38.1</ele>
        <time>2012-02-03T13:28:52Z</time>
      </trkpt>
      <trkpt lat="46.46756" lon="-1.50435">
        <ele>38.1</ele>
        <time>2012-02-03T13:29:03Z</time>
      </trkpt>
      <trkpt lat="46.46746" lon="-1.5045">
        <ele>38.1</ele>
        <time>2012-02-03T13:29:14Z</time>
      </trkpt>
      <trkpt lat="46.46737" lon="-1.50474">
        <ele>38.1</ele>
        <time>2012-02-03T13:29:24Z</time>
      </trkpt>
      <trkpt lat="46.46731" lon="-1.50496">
        <ele>38.1</ele>
        <time>2012-02-03T13:29:39Z</time>
      </trkpt>
      <trkpt lat="46.46725" lon="-1.50518">
        <ele>38.1</ele>
        <time>2012-02-03T13:29:51Z</time>
      </trkpt>
      <trkpt lat="46.4672" lon="-1.50537">
        <ele>38.1</ele>
        <time>2012-02-03T13:30:02Z</time>
      </trkpt>
      <trkpt lat="46.46714" lon="-1.50568">
        <ele>38.1</ele>
        <time>2012-02-03T13:30:19Z</time>
      </trkpt>
      <trkpt lat="46.46713" lon="-1.50587">
        <ele>38.1</ele>
        <time>2012-02-03T13:30:30Z</time>
      </trkpt>
      <trkpt lat="46.46713" lon="-1.50612">
        <ele>38.1</ele>
        <time>2012-02-03T13:30:42Z</time>
      </trkpt>
      <trkpt lat="46.46714" lon="-1.50633">
        <ele>38.1</ele>
        <time>2012-02-03T13:30:52Z</time>
      </trkpt>
      <trkpt lat="46.46716" lon="-1.50657">
        <ele>38.1</ele>
        <time>2012-02-03T13:31:04Z</time>
      </trkpt>
      <trkpt lat="46.46716" lon="-1.50681">
        <ele>38.1</ele>
        <time>2012-02-03T13:31:17Z</time>
      </trkpt>
      <trkpt lat="46.46714" lon="-1.50705">
        <ele>37.6</ele>
        <time>2012-02-03T13:31:32Z</time>
      </trkpt>
      <trkpt lat="46.46708" lon="-1.50721">
        <ele>37.2</ele>
        <time>2012-02-03T13:31:40Z</time>
      </trkpt>
      <trkpt lat="46.46699" lon="-1.50737">
        <ele>36.5</ele>
        <time>2012-02-03T13:31:54Z</time>
      </trkpt>
      <trkpt lat="46.46689" lon="-1.50752">
        <ele>35.8</ele>
        <time>2012-02-03T13:32:07Z</time>
      </trkpt>
      <trkpt lat="46.46679" lon="-1.50768">
        <ele>35.2</ele>
        <time>2012-02-03T13:32:19Z</time>
      </trkpt>
      <trkpt lat="46.46665" lon="-1.50785">
        <ele>34.4</ele>
        <time>2012-02-03T13:32:35Z</time>
      </trkpt>
      <trkpt lat="46.4665" lon="-1.5081">
        <ele>33.7</ele>
        <time>2012-02-03T13:32:48Z</time>
      </trkpt>
      <trkpt lat="46.4664" lon="-1.50827">
        <ele>32.9</ele>
        <time>2012-02-03T13:33:05Z</time>
      </trkpt>
      <trkpt lat="46.46623" lon="-1.50851">
        <ele>31.9</ele>
        <time>2012-02-03T13:33:23Z</time>
      </trkpt>
      <trkpt lat="46.46614" lon="-1.50868">
        <ele>31.4</ele>
        <time>2012-02-03T13:33:33Z</time>
      </trkpt>
      <trkpt lat="46.46602" lon="-1.50882">
        <ele>31</ele>
        <time>2012-02-03T13:33:42Z</time>
      </trkpt>
      <trkpt lat="46.46589" lon="-1.50898">
        <ele>30.5</ele>
        <time>2012-02-03T13:33:51Z</time>
      </trkpt>
      <trkpt lat="46.46579" lon="-1.50911">
        <ele>30.2</ele>
        <time>2012-02-03T13:33:58Z</time>
      </trkpt>
      <trkpt lat="46.4657" lon="-1.50925">
        <ele>29.6</ele>
        <time>2012-02-03T13:34:08Z</time>
      </trkpt>
      <trkpt lat="46.46558" lon="-1.50942">
        <ele>29</ele>
        <time>2012-02-03T13:34:20Z</time>
      </trkpt>
      <trkpt lat="46.46546" lon="-1.50963">
        <ele>28.3</ele>
        <time>2012-02-03T13:34:33Z</time>
      </trkpt>
      <trkpt lat="46.46536" lon="-1.50978">
        <ele>28.1</ele>
        <time>2012-02-03T13:34:43Z</time>
      </trkpt>
      <trkpt lat="46.46523" lon="-1.50999">
        <ele>28.1</ele>
        <time>2012-02-03T13:34:59Z</time>
      </trkpt>
      <trkpt lat="46.46511" lon="-1.51018">
        <ele>28.1</ele>
        <time>2012-02-03T13:35:12Z</time>
      </trkpt>
      <trkpt lat="46.46501" lon="-1.51033">
        <ele>28.1</ele>
        <time>2012-02-03T13:35:23Z</time>
      </trkpt>
      <trkpt lat="46.46492" lon="-1.51048">
        <ele>28.1</ele>
        <time>2012-02-03T13:35:33Z</time>
      </trkpt>
      <trkpt lat="46.46482" lon="-1.51062">
        <ele>28.1</ele>
        <time>2012-02-03T13:35:43Z</time>
      </trkpt>
      <trkpt lat="46.4647" lon="-1.51076">
        <ele>28.1</ele>
        <time>2012-02-03T13:35:52Z</time>
      </trkpt>
      <trkpt lat="46.46458" lon="-1.51091">
        <ele>28.1</ele>
        <time>2012-02-03T13:36:02Z</time>
      </trkpt>
      <trkpt lat="46.46444" lon="-1.51106">
        <ele>28.1</ele>
        <time>2012-02-03T13:36:11Z</time>
      </trkpt>
      <trkpt lat="46.46427" lon="-1.51119">
        <ele>28.1</ele>
        <time>2012-02-03T13:36:23Z</time>
      </trkpt>
      <trkpt lat="46.46411" lon="-1.51135">
        <ele>28.1</ele>
        <time>2012-02-03T13:36:39Z</time>
      </trkpt>
      <trkpt lat="46.46397" lon="-1.51156">
        <ele>28.1</ele>
        <time>2012-02-03T13:36:49Z</time>
      </trkpt>
      <trkpt lat="46.4639" lon="-1.51174">
        <ele>28.1</ele>
        <time>2012-02-03T13:37:07Z</time>
      </trkpt>
      <trkpt lat="46.46385" lon="-1.51196">
        <ele>28.1</ele>
        <time>2012-02-03T13:37:19Z</time>
      </trkpt>
      <trkpt lat="46.4638" lon="-1.51218">
        <ele>28.1</ele>
        <time>2012-02-03T13:37:29Z</time>
      </trkpt>
      <trkpt lat="46.46373" lon="-1.51243">
        <ele>28.1</ele>
        <time>2012-02-03T13:37:44Z</time>
      </trkpt>
      <trkpt lat="46.46368" lon="-1.51263">
        <ele>28.1</ele>
        <time>2012-02-03T13:37:57Z</time>
      </trkpt>
      <trkpt lat="46.46363" lon="-1.51282">
        <ele>28.1</ele>
        <time>2012-02-03T13:38:08Z</time>
      </trkpt>
      <trkpt lat="46.46358" lon="-1.51303">
        <ele>28.1</ele>
        <time>2012-02-03T13:38:18Z</time>
      </trkpt>
      <trkpt lat="46.46353" lon="-1.51325">
        <ele>28.1</ele>
        <time>2012-02-03T13:38:31Z</time>
      </trkpt>
      <trkpt lat="46.46348" lon="-1.51344">
        <ele>28.1</ele>
        <time>2012-02-03T13:38:42Z</time>
      </trkpt>
      <trkpt lat="46.46344" lon="-1.51367">
        <ele>28.1</ele>
        <time>2012-02-03T13:38:53Z</time>
      </trkpt>
      <trkpt lat="46.46341" lon="-1.51376">
        <ele>28.1</ele>
        <time>2012-02-03T13:39:00Z</time>
      </trkpt>
      <trkpt lat="46.46322" lon="-1.51374">
        <ele>28.1</ele>
        <time>2012-02-03T13:39:10Z</time>
      </trkpt>
      <trkpt lat="46.46314" lon="-1.51349">
        <ele>28.1</ele>
        <time>2012-02-03T13:39:27Z</time>
      </trkpt>
      <trkpt lat="46.46305" lon="-1.51327">
        <ele>28.1</ele>
        <time>2012-02-03T13:39:38Z</time>
      </trkpt>
      <trkpt lat="46.46297" lon="-1.51307">
        <ele>28.1</ele>
        <time>2012-02-03T13:39:50Z</time>
      </trkpt>
      <trkpt lat="46.46287" lon="-1.51283">
        <ele>28.1</ele>
        <time>2012-02-03T13:40:04Z</time>
      </trkpt>
      <trkpt lat="46.46277" lon="-1.51264">
        <ele>28.1</ele>
        <time>2012-02-03T13:40:14Z</time>
      </trkpt>
      <trkpt lat="46.46268" lon="-1.51248">
        <ele>28.1</ele>
        <time>2012-02-03T13:40:23Z</time>
      </trkpt>
      <trkpt lat="46.46258" lon="-1.5123">
        <ele>28.1</ele>
        <time>2012-02-03T13:40:32Z</time>
      </trkpt>
      <trkpt lat="46.46249" lon="-1.51213">
        <ele>28.1</ele>
        <time>2012-02-03T13:40:44Z</time>
      </trkpt>
      <trkpt lat="46.46241" lon="-1.51196">
        <ele>28.1</ele>
        <time>2012-02-03T13:40:54Z</time>
      </trkpt>
      <trkpt lat="46.46234" lon="-1.51177">
        <ele>28.1</ele>
        <time>2012-02-03T13:41:04Z</time>
      </trkpt>
      <trkpt lat="46.4623" lon="-1.51155">
        <ele>28.1</ele>
        <time>2012-02-03T13:41:14Z</time>
      </trkpt>
      <trkpt lat="46.46223" lon="-1.51129">
        <ele>28.1</ele>
        <time>2012-02-03T13:41:25Z</time>
      </trkpt>
      <trkpt lat="46.46221" lon="-1.51108">
        <ele>28.1</ele>
        <time>2012-02-03T13:41:40Z</time>
      </trkpt>
      <trkpt lat="46.46217" lon="-1.51078">
        <ele>28.1</ele>
        <time>2012-02-03T13:41:51Z</time>
      </trkpt>
      <trkpt lat="46.46211" lon="-1.51054">
        <ele>28.1</ele>
        <time>2012-02-03T13:42:07Z</time>
      </trkpt>
      <trkpt lat="46.46207" lon="-1.51033">
        <ele>28.1</ele>
        <time>2012-02-03T13:42:24Z</time>
      </trkpt>
      <trkpt lat="46.46202" lon="-1.51014">
        <ele>28.1</ele>
        <time>2012-02-03T13:42:38Z</time>
      </trkpt>
      <trkpt lat="46.46196" lon="-1.50995">
        <ele>28.1</ele>
        <time>2012-02-03T13:42:48Z</time>
      </trkpt>
      <trkpt lat="46.46188" lon="-1.50978">
        <ele>28.1</ele>
        <time>2012-02-03T13:42:57Z</time>
      </trkpt>
      <trkpt lat="46.4618" lon="-1.50962">
        <ele>17.5</ele>
        <time>2012-02-03T13:43:07Z</time>
      </trkpt>
      <trkpt lat="46.46164" lon="-1.50943">
        <ele>15.1</ele>
        <time>2012-02-03T13:43:23Z</time>
      </trkpt>
      <trkpt lat="46.4615" lon="-1.50925">
        <ele>15.1</ele>
        <time>2012-02-03T13:43:37Z</time>
      </trkpt>
      <trkpt lat="46.46139" lon="-1.50911">
        <ele>15.1</ele>
        <time>2012-02-03T13:43:45Z</time>
      </trkpt>
      <trkpt lat="46.46129" lon="-1.50895">
        <ele>15.1</ele>
        <time>2012-02-03T13:43:56Z</time>
      </trkpt>
      <trkpt lat="46.4612" lon="-1.50874">
        <ele>15.1</ele>
        <time>2012-02-03T13:44:07Z</time>
      </trkpt>
      <trkpt lat="46.46113" lon="-1.50856">
        <ele>15.1</ele>
        <time>2012-02-03T13:44:17Z</time>
      </trkpt>
      <trkpt lat="46.46106" lon="-1.50839">
        <ele>15.1</ele>
        <time>2012-02-03T13:44:28Z</time>
      </trkpt>
      <trkpt lat="46.46095" lon="-1.50807">
        <ele>15.1</ele>
        <time>2012-02-03T13:44:40Z</time>
      </trkpt>
      <trkpt lat="46.46088" lon="-1.50789">
        <ele>15.1</ele>
        <time>2012-02-03T13:44:58Z</time>
      </trkpt>
      <trkpt lat="46.46082" lon="-1.50768">
        <ele>15.1</ele>
        <time>2012-02-03T13:45:10Z</time>
      </trkpt>
      <trkpt lat="46.46075" lon="-1.5075">
        <ele>15.1</ele>
        <time>2012-02-03T13:45:24Z</time>
      </trkpt>
      <trkpt lat="46.46066" lon="-1.50732">
        <ele>15.1</ele>
        <time>2012-02-03T13:45:35Z</time>
      </trkpt>
      <trkpt lat="46.46053" lon="-1.50706">
        <ele>15.1</ele>
        <time>2012-02-03T13:45:48Z</time>
      </trkpt>
      <trkpt lat="46.46044" lon="-1.5069">
        <ele>15.1</ele>
        <time>2012-02-03T13:45:55Z</time>
      </trkpt>
      <trkpt lat="46.46032" lon="-1.50668">
        <ele>15.1</ele>
        <time>2012-02-03T13:46:05Z</time>
      </trkpt>
      <trkpt lat="46.46024" lon="-1.5065">
        <ele>15.1</ele>
        <time>2012-02-03T13:46:15Z</time>
      </trkpt>
      <trkpt lat="46.46017" lon="-1.50625">
        <ele>15.1</ele>
        <time>2012-02-03T13:46:31Z</time>
      </trkpt>
      <trkpt lat="46.4601" lon="-1.50607">
        <ele>15.1</ele>
        <time>2012-02-03T13:46:42Z</time>
      </trkpt>
      <trkpt lat="46.45993" lon="-1.5058">
        <ele>14.5</ele>
        <time>2012-02-03T13:46:57Z</time>
      </trkpt>
      <trkpt lat="46.45983" lon="-1.50565">
        <ele>13.6</ele>
        <time>2012-02-03T13:47:10Z</time>
      </trkpt>
      <trkpt lat="46.45969" lon="-1.50541">
        <ele>12.6</ele>
        <time>2012-02-03T13:47:25Z</time>
      </trkpt>
      <trkpt lat="46.45959" lon="-1.50521">
        <ele>11.8</ele>
        <time>2012-02-03T13:47:38Z</time>
      </trkpt>
      <trkpt lat="46.45944" lon="-1.505">
        <ele>10.9</ele>
        <time>2012-02-03T13:47:51Z</time>
      </trkpt>
      <trkpt lat="46.45934" lon="-1.50483">
        <ele>10.5</ele>
        <time>2012-02-03T13:47:57Z</time>
      </trkpt>
      <trkpt lat="46.45922" lon="-1.50463">
        <ele>9.5</ele>
        <time>2012-02-03T13:48:13Z</time>
      </trkpt>
      <trkpt lat="46.45912" lon="-1.50447">
        <ele>8.7</ele>
        <time>2012-02-03T13:48:24Z</time>
      </trkpt>
      <trkpt lat="46.45899" lon="-1.50426">
        <ele>7.9</ele>
        <time>2012-02-03T13:48:37Z</time>
      </trkpt>
      <trkpt lat="46.45889" lon="-1.50413">
        <ele>7.3</ele>
        <time>2012-02-03T13:48:46Z</time>
      </trkpt>
      <trkpt lat="46.45878" lon="-1.50401">
        <ele>6.6</ele>
        <time>2012-02-03T13:48:56Z</time>
      </trkpt>
      <trkpt lat="46.45867" lon="-1.50388">
        <ele>6</ele>
        <time>2012-02-03T13:49:06Z</time>
      </trkpt>
      <trkpt lat="46.45854" lon="-1.50373">
        <ele>5.2</ele>
        <time>2012-02-03T13:49:17Z</time>
      </trkpt>
      <trkpt lat="46.4584" lon="-1.50355">
        <ele>4.4</ele>
        <time>2012-02-03T13:49:30Z</time>
      </trkpt>
      <trkpt lat="46.45821" lon="-1.50334">
        <ele>4.1</ele>
        <time>2012-02-03T13:49:43Z</time>
      </trkpt>
      <trkpt lat="46.45807" lon="-1.50319">
        <ele>4.1</ele>
        <time>2012-02-03T13:50:01Z</time>
      </trkpt>
      <trkpt lat="46.45796" lon="-1.50307">
        <ele>4.1</ele>
        <time>2012-02-03T13:50:17Z</time>
      </trkpt>
      <trkpt lat="46.45781" lon="-1.5029">
        <ele>4.1</ele>
        <time>2012-02-03T13:50:27Z</time>
      </trkpt>
      <trkpt lat="46.4577" lon="-1.50276">
        <ele>4.1</ele>
        <time>2012-02-03T13:50:42Z</time>
      </trkpt>
      <trkpt lat="46.45761" lon="-1.50257">
        <ele>4.1</ele>
        <time>2012-02-03T13:50:53Z</time>
      </trkpt>
      <trkpt lat="46.45757" lon="-1.50236">
        <ele>4.1</ele>
        <time>2012-02-03T13:51:04Z</time>
      </trkpt>
      <trkpt lat="46.45751" lon="-1.50215">
        <ele>4.1</ele>
        <time>2012-02-03T13:51:14Z</time>
      </trkpt>
      <trkpt lat="46.45738" lon="-1.50191">
        <ele>4.1</ele>
        <time>2012-02-03T13:51:36Z</time>
      </trkpt>
      <trkpt lat="46.45727" lon="-1.50167">
        <ele>4.1</ele>
        <time>2012-02-03T13:51:49Z</time>
      </trkpt>
      <trkpt lat="46.45721" lon="-1.50148">
        <ele>4.1</ele>
        <time>2012-02-03T13:52:00Z</time>
      </trkpt>
      <trkpt lat="46.45712" lon="-1.50123">
        <ele>4.1</ele>
        <time>2012-02-03T13:52:11Z</time>
      </trkpt>
      <trkpt lat="46.457" lon="-1.50109">
        <ele>4.1</ele>
        <time>2012-02-03T13:52:19Z</time>
      </trkpt>
      <trkpt lat="46.45689" lon="-1.50085">
        <ele>4.1</ele>
        <time>2012-02-03T13:52:46Z</time>
      </trkpt>
      <trkpt lat="46.45679" lon="-1.50067">
        <ele>4.1</ele>
        <time>2012-02-03T13:52:59Z</time>
      </trkpt>
      <trkpt lat="46.45674" lon="-1.50048">
        <ele>4.1</ele>
        <time>2012-02-03T13:53:13Z</time>
      </trkpt>
      <trkpt lat="46.4567" lon="-1.50024">
        <ele>4.1</ele>
        <time>2012-02-03T13:53:23Z</time>
      </trkpt>
      <trkpt lat="46.45668" lon="-1.50004">
        <ele>4.1</ele>
        <time>2012-02-03T13:53:34Z</time>
      </trkpt>
      <trkpt lat="46.45665" lon="-1.49979">
        <ele>4.1</ele>
        <time>2012-02-03T13:53:44Z</time>
      </trkpt>
      <trkpt lat="46.45664" lon="-1.49953">
        <ele>4.1</ele>
        <time>2012-02-03T13:53:58Z</time>
      </trkpt>
      <trkpt lat="46.45663" lon="-1.49927">
        <ele>4.1</ele>
        <time>2012-02-03T13:54:13Z</time>
      </trkpt>
      <trkpt lat="46.45659" lon="-1.49903">
        <ele>4.1</ele>
        <time>2012-02-03T13:54:28Z</time>
      </trkpt>
      <trkpt lat="46.45653" lon="-1.49875">
        <ele>4.1</ele>
        <time>2012-02-03T13:54:41Z</time>
      </trkpt>
      <trkpt lat="46.45646" lon="-1.49856">
        <ele>4.1</ele>
        <time>2012-02-03T13:54:51Z</time>
      </trkpt>
      <trkpt lat="46.45638" lon="-1.49834">
        <ele>4.1</ele>
        <time>2012-02-03T13:55:02Z</time>
      </trkpt>
      <trkpt lat="46.45632" lon="-1.49813">
        <ele>4.1</ele>
        <time>2012-02-03T13:55:14Z</time>
      </trkpt>
      <trkpt lat="46.45626" lon="-1.49783">
        <ele>4.1</ele>
        <time>2012-02-03T13:55:31Z</time>
      </trkpt>
      <trkpt lat="46.45623" lon="-1.49764">
        <ele>4.1</ele>
        <time>2012-02-03T13:55:44Z</time>
      </trkpt>
      <trkpt lat="46.45622" lon="-1.49733">
        <ele>4.1</ele>
        <time>2012-02-03T13:58:31Z</time>
      </trkpt>
      <trkpt lat="46.4562" lon="-1.49705">
        <ele>4.1</ele>
        <time>2012-02-03T13:58:47Z</time>
      </trkpt>
      <trkpt lat="46.45617" lon="-1.49677">
        <ele>4.1</ele>
        <time>2012-02-03T13:58:59Z</time>
      </trkpt>
      <trkpt lat="46.45613" lon="-1.49646">
        <ele>4.1</ele>
        <time>2012-02-03T13:59:13Z</time>
      </trkpt>
      <trkpt lat="46.4561" lon="-1.49622">
        <ele>4.1</ele>
        <time>2012-02-03T13:59:32Z</time>
      </trkpt>
      <trkpt lat="46.45607" lon="-1.49602">
        <ele>4.1</ele>
        <time>2012-02-03T13:59:46Z</time>
      </trkpt>
      <trkpt lat="46.45605" lon="-1.49582">
        <ele>4.1</ele>
        <time>2012-02-03T13:59:58Z</time>
      </trkpt>
      <trkpt lat="46.45601" lon="-1.49561">
        <ele>4.1</ele>
        <time>2012-02-03T14:00:11Z</time>
      </trkpt>
      <trkpt lat="46.45598" lon="-1.49539">
        <ele>4.1</ele>
        <time>2012-02-03T14:00:26Z</time>
      </trkpt>
      <trkpt lat="46.45596" lon="-1.49513">
        <ele>4.1</ele>
        <time>2012-02-03T14:00:39Z</time>
      </trkpt>
      <trkpt lat="46.45591" lon="-1.49483">
        <ele>4.1</ele>
        <time>2012-02-03T14:00:54Z</time>
      </trkpt>
      <trkpt lat="46.45588" lon="-1.49464">
        <ele>4.1</ele>
        <time>2012-02-03T14:01:07Z</time>
      </trkpt>
      <trkpt lat="46.45585" lon="-1.49435">
        <ele>4.1</ele>
        <time>2012-02-03T14:01:22Z</time>
      </trkpt>
      <trkpt lat="46.45585" lon="-1.49415">
        <ele>4.1</ele>
        <time>2012-02-03T14:01:38Z</time>
      </trkpt>
      <trkpt lat="46.45587" lon="-1.49383">
        <ele>4.1</ele>
        <time>2012-02-03T14:02:01Z</time>
      </trkpt>
      <trkpt lat="46.45586" lon="-1.49354">
        <ele>4.1</ele>
        <time>2012-02-03T14:02:12Z</time>
      </trkpt>
      <trkpt lat="46.45585" lon="-1.49334">
        <ele>4.1</ele>
        <time>2012-02-03T14:02:19Z</time>
      </trkpt>
      <trkpt lat="46.45584" lon="-1.49313">
        <ele>4.1</ele>
        <time>2012-02-03T14:02:27Z</time>
      </trkpt>
      <trkpt lat="46.45583" lon="-1.49292">
        <ele>4.1</ele>
        <time>2012-02-03T14:02:37Z</time>
      </trkpt>
      <trkpt lat="46.45583" lon="-1.49269">
        <ele>4.1</ele>
        <time>2012-02-03T14:02:49Z</time>
      </trkpt>
      <trkpt lat="46.45583" lon="-1.49248">
        <ele>4.1</ele>
        <time>2012-02-03T14:03:01Z</time>
      </trkpt>
      <trkpt lat="46.45581" lon="-1.49226">
        <ele>4.1</ele>
        <time>2012-02-03T14:03:15Z</time>
      </trkpt>
      <trkpt lat="46.45578" lon="-1.49203">
        <ele>4.1</ele>
        <time>2012-02-03T14:03:32Z</time>
      </trkpt>
      <trkpt lat="46.45577" lon="-1.49179">
        <ele>4.1</ele>
        <time>2012-02-03T14:03:45Z</time>
      </trkpt>
      <trkpt lat="46.45575" lon="-1.49154">
        <ele>4.1</ele>
        <time>2012-02-03T14:03:56Z</time>
      </trkpt>
      <trkpt lat="46.45575" lon="-1.49128">
        <ele>4.1</ele>
        <time>2012-02-03T14:04:09Z</time>
      </trkpt>
      <trkpt lat="46.45573" lon="-1.49103">
        <ele>4.1</ele>
        <time>2012-02-03T14:04:23Z</time>
      </trkpt>
      <trkpt lat="46.45574" lon="-1.49077">
        <ele>3.7</ele>
        <time>2012-02-03T14:04:36Z</time>
      </trkpt>
      <trkpt lat="46.45574" lon="-1.49057">
        <ele>-1</ele>
        <time>2012-02-03T14:04:47Z</time>
      </trkpt>
      <trkpt lat="46.45572" lon="-1.49031">
        <ele>-6.6</ele>
        <time>2012-02-03T14:05:00Z</time>
      </trkpt>
      <trkpt lat="46.45569" lon="-1.4901">
        <ele>-7.5</ele>
        <time>2012-02-03T14:05:13Z</time>
      </trkpt>
      <trkpt lat="46.45564" lon="-1.48991">
        <ele>-7.1</ele>
        <time>2012-02-03T14:05:25Z</time>
      </trkpt>
      <trkpt lat="46.45562" lon="-1.48972">
        <ele>-6.6</ele>
        <time>2012-02-03T14:05:38Z</time>
      </trkpt>
      <trkpt lat="46.4556" lon="-1.48948">
        <ele>-6.4</ele>
        <time>2012-02-03T14:05:46Z</time>
      </trkpt>
      <trkpt lat="46.45557" lon="-1.4891">
        <ele>-6.1</ele>
        <time>2012-02-03T14:05:54Z</time>
      </trkpt>
      <trkpt lat="46.45556" lon="-1.48889">
        <ele>-5.6</ele>
        <time>2012-02-03T14:06:07Z</time>
      </trkpt>
      <trkpt lat="46.45554" lon="-1.48869">
        <ele>-5.2</ele>
        <time>2012-02-03T14:06:18Z</time>
      </trkpt>
      <trkpt lat="46.45554" lon="-1.48846">
        <ele>-4.8</ele>
        <time>2012-02-03T14:06:30Z</time>
      </trkpt>
      <trkpt lat="46.45554" lon="-1.48819">
        <ele>-4.4</ele>
        <time>2012-02-03T14:06:43Z</time>
      </trkpt>
      <trkpt lat="46.45554" lon="-1.48798">
        <ele>-3.9</ele>
        <time>2012-02-03T14:06:55Z</time>
      </trkpt>
      <trkpt lat="46.45557" lon="-1.4877">
        <ele>-3.4</ele>
        <time>2012-02-03T14:07:10Z</time>
      </trkpt>
      <trkpt lat="46.45563" lon="-1.48736">
        <ele>-2.9</ele>
        <time>2012-02-03T14:07:25Z</time>
      </trkpt>
      <trkpt lat="46.45569" lon="-1.48718">
        <ele>-2.3</ele>
        <time>2012-02-03T14:07:42Z</time>
      </trkpt>
      <trkpt lat="46.4557" lon="-1.48696">
        <ele>-1.8</ele>
        <time>2012-02-03T14:07:56Z</time>
      </trkpt>
      <trkpt lat="46.45573" lon="-1.48672">
        <ele>-1.3</ele>
        <time>2012-02-03T14:08:11Z</time>
      </trkpt>
      <trkpt lat="46.45575" lon="-1.48638">
        <ele>-0.7</ele>
        <time>2012-02-03T14:08:28Z</time>
      </trkpt>
      <trkpt lat="46.45579" lon="-1.48615">
        <ele>-0.3</ele>
        <time>2012-02-03T14:08:39Z</time>
      </trkpt>
      <trkpt lat="46.45583" lon="-1.48595">
        <ele>0.2</ele>
        <time>2012-02-03T14:08:53Z</time>
      </trkpt>
      <trkpt lat="46.45587" lon="-1.48575">
        <ele>0.7</ele>
        <time>2012-02-03T14:09:06Z</time>
      </trkpt>
      <trkpt lat="46.45591" lon="-1.48552">
        <ele>1.1</ele>
        <time>2012-02-03T14:09:19Z</time>
      </trkpt>
      <trkpt lat="46.45593" lon="-1.48524">
        <ele>1.6</ele>
        <time>2012-02-03T14:09:32Z</time>
      </trkpt>
      <trkpt lat="46.45595" lon="-1.48502">
        <ele>2</ele>
        <time>2012-02-03T14:09:45Z</time>
      </trkpt>
      <trkpt lat="46.45599" lon="-1.48479">
        <ele>2.6</ele>
        <time>2012-02-03T14:10:01Z</time>
      </trkpt>
      <trkpt lat="46.45602" lon="-1.48459">
        <ele>2.9</ele>
        <time>2012-02-03T14:10:09Z</time>
      </trkpt>
      <trkpt lat="46.45608" lon="-1.48444">
        <ele>3.1</ele>
        <time>2012-02-03T14:10:17Z</time>
      </trkpt>
      <trkpt lat="46.45618" lon="-1.4843">
        <ele>3.1</ele>
        <time>2012-02-03T14:10:29Z</time>
      </trkpt>
      <trkpt lat="46.45639" lon="-1.48433">
        <ele>3.1</ele>
        <time>2012-02-03T14:10:42Z</time>
      </trkpt>
      <trkpt lat="46.45641" lon="-1.48435">
        <ele>3.1</ele>
        <time>2012-02-03T14:10:49Z</time>
      </trkpt>
      <trkpt lat="46.45655" lon="-1.48429">
        <ele>23.6</ele>
        <time>2012-02-03T14:15:16Z</time>
      </trkpt>
      <trkpt lat="46.45667" lon="-1.48421">
        <ele>23.3</ele>
        <time>2012-02-03T14:15:27Z</time>
      </trkpt>
      <trkpt lat="46.45681" lon="-1.48413">
        <ele>23</ele>
        <time>2012-02-03T14:15:38Z</time>
      </trkpt>
      <trkpt lat="46.45694" lon="-1.48407">
        <ele>22.8</ele>
        <time>2012-02-03T14:15:48Z</time>
      </trkpt>
      <trkpt lat="46.45709" lon="-1.484">
        <ele>22.5</ele>
        <time>2012-02-03T14:16:00Z</time>
      </trkpt>
      <trkpt lat="46.45723" lon="-1.48393">
        <ele>22.2</ele>
        <time>2012-02-03T14:16:12Z</time>
      </trkpt>
      <trkpt lat="46.45742" lon="-1.48381">
        <ele>21.7</ele>
        <time>2012-02-03T14:16:31Z</time>
      </trkpt>
      <trkpt lat="46.45756" lon="-1.48375">
        <ele>21.4</ele>
        <time>2012-02-03T14:16:43Z</time>
      </trkpt>
      <trkpt lat="46.45771" lon="-1.4837">
        <ele>21.2</ele>
        <time>2012-02-03T14:16:53Z</time>
      </trkpt>
      <trkpt lat="46.45786" lon="-1.48365">
        <ele>20.9</ele>
        <time>2012-02-03T14:17:06Z</time>
      </trkpt>
      <trkpt lat="46.45799" lon="-1.48359">
        <ele>20.6</ele>
        <time>2012-02-03T14:17:17Z</time>
      </trkpt>
      <trkpt lat="46.45814" lon="-1.48359">
        <ele>20.3</ele>
        <time>2012-02-03T14:17:30Z</time>
      </trkpt>
      <trkpt lat="46.45829" lon="-1.48362">
        <ele>20</ele>
        <time>2012-02-03T14:17:43Z</time>
      </trkpt>
      <trkpt lat="46.45851" lon="-1.48363">
        <ele>19.7</ele>
        <time>2012-02-03T14:17:55Z</time>
      </trkpt>
      <trkpt lat="46.45865" lon="-1.4836">
        <ele>19.3</ele>
        <time>2012-02-03T14:18:13Z</time>
      </trkpt>
      <trkpt lat="46.45909" lon="-1.4836">
        <ele>23</ele>
        <time>2012-02-03T14:18:18Z</time>
      </trkpt>
      <trkpt lat="46.45921" lon="-1.48356">
        <ele>23.2</ele>
        <time>2012-02-03T14:18:23Z</time>
      </trkpt>
      <trkpt lat="46.45922" lon="-1.48355">
        <ele>23.1</ele>
        <time>2012-02-03T14:18:56Z</time>
      </trkpt>
      <trkpt lat="46.45923" lon="-1.48355">
        <ele>23.1</ele>
        <time>2012-02-03T14:18:58Z</time>
      </trkpt>
      <trkpt lat="46.45937" lon="-1.48349">
        <ele>23.1</ele>
        <time>2012-02-03T14:19:13Z</time>
      </trkpt>
      <trkpt lat="46.45949" lon="-1.4834">
        <ele>23.1</ele>
        <time>2012-02-03T14:19:27Z</time>
      </trkpt>
      <trkpt lat="46.45962" lon="-1.48332">
        <ele>23.1</ele>
        <time>2012-02-03T14:19:37Z</time>
      </trkpt>
      <trkpt lat="46.45975" lon="-1.48322">
        <ele>23.1</ele>
        <time>2012-02-03T14:19:54Z</time>
      </trkpt>
      <trkpt lat="46.45989" lon="-1.48317">
        <ele>23.1</ele>
        <time>2012-02-03T14:20:04Z</time>
      </trkpt>
      <trkpt lat="46.4601" lon="-1.48306">
        <ele>23.1</ele>
        <time>2012-02-03T14:20:16Z</time>
      </trkpt>
      <trkpt lat="46.46023" lon="-1.483">
        <ele>23.1</ele>
        <time>2012-02-03T14:20:25Z</time>
      </trkpt>
      <trkpt lat="46.46044" lon="-1.48285">
        <ele>23.3</ele>
        <time>2012-02-03T14:20:40Z</time>
      </trkpt>
      <trkpt lat="46.46055" lon="-1.48271">
        <ele>23.5</ele>
        <time>2012-02-03T14:20:54Z</time>
      </trkpt>
      <trkpt lat="46.46069" lon="-1.48257">
        <ele>23.7</ele>
        <time>2012-02-03T14:21:04Z</time>
      </trkpt>
      <trkpt lat="46.46081" lon="-1.48244">
        <ele>24</ele>
        <time>2012-02-03T14:21:16Z</time>
      </trkpt>
      <trkpt lat="46.46092" lon="-1.48232">
        <ele>24.2</ele>
        <time>2012-02-03T14:21:27Z</time>
      </trkpt>
      <trkpt lat="46.46107" lon="-1.48217">
        <ele>24.5</ele>
        <time>2012-02-03T14:21:42Z</time>
      </trkpt>
      <trkpt lat="46.46121" lon="-1.48203">
        <ele>24.8</ele>
        <time>2012-02-03T14:21:56Z</time>
      </trkpt>
      <trkpt lat="46.46133" lon="-1.4819">
        <ele>25</ele>
        <time>2012-02-03T14:22:07Z</time>
      </trkpt>
      <trkpt lat="46.46148" lon="-1.48169">
        <ele>25.2</ele>
        <time>2012-02-03T14:22:20Z</time>
      </trkpt>
      <trkpt lat="46.46156" lon="-1.48151">
        <ele>25.6</ele>
        <time>2012-02-03T14:22:37Z</time>
      </trkpt>
      <trkpt lat="46.46166" lon="-1.48134">
        <ele>25.8</ele>
        <time>2012-02-03T14:22:51Z</time>
      </trkpt>
      <trkpt lat="46.46181" lon="-1.4811">
        <ele>26.2</ele>
        <time>2012-02-03T14:23:08Z</time>
      </trkpt>
      <trkpt lat="46.46192" lon="-1.48088">
        <ele>26.4</ele>
        <time>2012-02-03T14:23:21Z</time>
      </trkpt>
      <trkpt lat="46.46203" lon="-1.48067">
        <ele>26.7</ele>
        <time>2012-02-03T14:23:36Z</time>
      </trkpt>
      <trkpt lat="46.46212" lon="-1.48051">
        <ele>27</ele>
        <time>2012-02-03T14:23:49Z</time>
      </trkpt>
      <trkpt lat="46.46222" lon="-1.48032">
        <ele>27.3</ele>
        <time>2012-02-03T14:24:03Z</time>
      </trkpt>
      <trkpt lat="46.46237" lon="-1.48007">
        <ele>27.6</ele>
        <time>2012-02-03T14:24:17Z</time>
      </trkpt>
      <trkpt lat="46.46247" lon="-1.47994">
        <ele>27.8</ele>
        <time>2012-02-03T14:24:32Z</time>
      </trkpt>
      <trkpt lat="46.46258" lon="-1.47976">
        <ele>28.2</ele>
        <time>2012-02-03T14:24:48Z</time>
      </trkpt>
      <trkpt lat="46.4627" lon="-1.4796">
        <ele>28.4</ele>
        <time>2012-02-03T14:25:01Z</time>
      </trkpt>
      <trkpt lat="46.46281" lon="-1.47946">
        <ele>28.7</ele>
        <time>2012-02-03T14:25:14Z</time>
      </trkpt>
      <trkpt lat="46.46291" lon="-1.47932">
        <ele>28.9</ele>
        <time>2012-02-03T14:25:26Z</time>
      </trkpt>
      <trkpt lat="46.463" lon="-1.47917">
        <ele>29.2</ele>
        <time>2012-02-03T14:25:38Z</time>
      </trkpt>
      <trkpt lat="46.46316" lon="-1.47895">
        <ele>29.4</ele>
        <time>2012-02-03T14:25:50Z</time>
      </trkpt>
      <trkpt lat="46.46328" lon="-1.47881">
        <ele>29.7</ele>
        <time>2012-02-03T14:26:05Z</time>
      </trkpt>
      <trkpt lat="46.4634" lon="-1.4787">
        <ele>29.9</ele>
        <time>2012-02-03T14:26:17Z</time>
      </trkpt>
      <trkpt lat="46.46354" lon="-1.47861">
        <ele>30.2</ele>
        <time>2012-02-03T14:26:32Z</time>
      </trkpt>
      <trkpt lat="46.46366" lon="-1.47853">
        <ele>30.5</ele>
        <time>2012-02-03T14:26:45Z</time>
      </trkpt>
      <trkpt lat="46.46383" lon="-1.47838">
        <ele>30.8</ele>
        <time>2012-02-03T14:27:03Z</time>
      </trkpt>
      <trkpt lat="46.46398" lon="-1.47826">
        <ele>31.1</ele>
        <time>2012-02-03T14:27:18Z</time>
      </trkpt>
      <trkpt lat="46.46409" lon="-1.47815">
        <ele>31.4</ele>
        <time>2012-02-03T14:27:31Z</time>
      </trkpt>
      <trkpt lat="46.46422" lon="-1.47803">
        <ele>31.8</ele>
        <time>2012-02-03T14:27:53Z</time>
      </trkpt>
      <trkpt lat="46.46426" lon="-1.47799">
        <ele>32.1</ele>
        <time>2012-02-03T14:28:06Z</time>
      </trkpt>
      <trkpt lat="46.46422" lon="-1.47814">
        <ele>33.1</ele>
        <time>2012-02-03T14:29:06Z</time>
      </trkpt>
      <trkpt lat="46.46434" lon="-1.47839">
        <ele>33.1</ele>
        <time>2012-02-03T14:29:25Z</time>
      </trkpt>
      <trkpt lat="46.46446" lon="-1.47856">
        <ele>33.1</ele>
        <time>2012-02-03T14:29:37Z</time>
      </trkpt>
      <trkpt lat="46.46457" lon="-1.47869">
        <ele>33.1</ele>
        <time>2012-02-03T14:29:51Z</time>
      </trkpt>
      <trkpt lat="46.46465" lon="-1.47886">
        <ele>33.1</ele>
        <time>2012-02-03T14:30:03Z</time>
      </trkpt>
      <trkpt lat="46.46467" lon="-1.47908">
        <ele>33.1</ele>
        <time>2012-02-03T14:30:14Z</time>
      </trkpt>
      <trkpt lat="46.46472" lon="-1.47929">
        <ele>33.1</ele>
        <time>2012-02-03T14:30:26Z</time>
      </trkpt>
      <trkpt lat="46.46479" lon="-1.47947">
        <ele>33.1</ele>
        <time>2012-02-03T14:30:36Z</time>
      </trkpt>
      <trkpt lat="46.46486" lon="-1.47964">
        <ele>33.1</ele>
        <time>2012-02-03T14:30:48Z</time>
      </trkpt>
      <trkpt lat="46.46497" lon="-1.47987">
        <ele>33.1</ele>
        <time>2012-02-03T14:31:05Z</time>
      </trkpt>
      <trkpt lat="46.46507" lon="-1.48012">
        <ele>33.1</ele>
        <time>2012-02-03T14:31:19Z</time>
      </trkpt>
      <trkpt lat="46.46514" lon="-1.48031">
        <ele>33.1</ele>
        <time>2012-02-03T14:31:30Z</time>
      </trkpt>
      <trkpt lat="46.46521" lon="-1.48049">
        <ele>33.1</ele>
        <time>2012-02-03T14:31:41Z</time>
      </trkpt>
      <trkpt lat="46.46528" lon="-1.48068">
        <ele>33.1</ele>
        <time>2012-02-03T14:31:52Z</time>
      </trkpt>
      <trkpt lat="46.46534" lon="-1.48089">
        <ele>33.1</ele>
        <time>2012-02-03T14:32:03Z</time>
      </trkpt>
      <trkpt lat="46.46545" lon="-1.48116">
        <ele>33.1</ele>
        <time>2012-02-03T14:32:18Z</time>
      </trkpt>
      <trkpt lat="46.46555" lon="-1.48132">
        <ele>33.1</ele>
        <time>2012-02-03T14:32:32Z</time>
      </trkpt>
      <trkpt lat="46.46564" lon="-1.48152">
        <ele>33.1</ele>
        <time>2012-02-03T14:32:44Z</time>
      </trkpt>
      <trkpt lat="46.46572" lon="-1.4817">
        <ele>33.1</ele>
        <time>2012-02-03T14:32:56Z</time>
      </trkpt>
      <trkpt lat="46.46579" lon="-1.4819">
        <ele>33.1</ele>
        <time>2012-02-03T14:33:08Z</time>
      </trkpt>
      <trkpt lat="46.46584" lon="-1.48209">
        <ele>33.1</ele>
        <time>2012-02-03T14:33:18Z</time>
      </trkpt>
      <trkpt lat="46.46588" lon="-1.48233">
        <ele>33.1</ele>
        <time>2012-02-03T14:33:31Z</time>
      </trkpt>
      <trkpt lat="46.46592" lon="-1.48251">
        <ele>33.1</ele>
        <time>2012-02-03T14:33:41Z</time>
      </trkpt>
      <trkpt lat="46.466" lon="-1.48267">
        <ele>33.1</ele>
        <time>2012-02-03T14:33:53Z</time>
      </trkpt>
      <trkpt lat="46.4661" lon="-1.48284">
        <ele>33.1</ele>
        <time>2012-02-03T14:34:07Z</time>
      </trkpt>
      <trkpt lat="46.46618" lon="-1.48301">
        <ele>33.1</ele>
        <time>2012-02-03T14:34:19Z</time>
      </trkpt>
      <trkpt lat="46.46623" lon="-1.48321">
        <ele>33.1</ele>
        <time>2012-02-03T14:34:32Z</time>
      </trkpt>
      <trkpt lat="46.46626" lon="-1.48341">
        <ele>33.1</ele>
        <time>2012-02-03T14:34:46Z</time>
      </trkpt>
      <trkpt lat="46.46633" lon="-1.48361">
        <ele>33.1</ele>
        <time>2012-02-03T14:34:59Z</time>
      </trkpt>
      <trkpt lat="46.46642" lon="-1.48389">
        <ele>33.1</ele>
        <time>2012-02-03T14:35:22Z</time>
      </trkpt>
      <trkpt lat="46.46646" lon="-1.48409">
        <ele>33.1</ele>
        <time>2012-02-03T14:35:35Z</time>
      </trkpt>
      <trkpt lat="46.46657" lon="-1.48432">
        <ele>33.1</ele>
        <time>2012-02-03T14:35:48Z</time>
      </trkpt>
      <trkpt lat="46.46665" lon="-1.4845">
        <ele>33.1</ele>
        <time>2012-02-03T14:35:57Z</time>
      </trkpt>
      <trkpt lat="46.46673" lon="-1.48467">
        <ele>33.2</ele>
        <time>2012-02-03T14:36:07Z</time>
      </trkpt>
      <trkpt lat="46.46679" lon="-1.48486">
        <ele>33.3</ele>
        <time>2012-02-03T14:36:17Z</time>
      </trkpt>
      <trkpt lat="46.46684" lon="-1.48505">
        <ele>33.4</ele>
        <time>2012-02-03T14:36:25Z</time>
      </trkpt>
      <trkpt lat="46.46691" lon="-1.48524">
        <ele>33.5</ele>
        <time>2012-02-03T14:36:36Z</time>
      </trkpt>
      <trkpt lat="46.46698" lon="-1.48541">
        <ele>33.6</ele>
        <time>2012-02-03T14:36:47Z</time>
      </trkpt>
      <trkpt lat="46.46706" lon="-1.48557">
        <ele>33.7</ele>
        <time>2012-02-03T14:36:59Z</time>
      </trkpt>
      <trkpt lat="46.46711" lon="-1.48577">
        <ele>33.8</ele>
        <time>2012-02-03T14:37:09Z</time>
      </trkpt>
      <trkpt lat="46.4672" lon="-1.48594">
        <ele>33.9</ele>
        <time>2012-02-03T14:37:21Z</time>
      </trkpt>
      <trkpt lat="46.46735" lon="-1.48608">
        <ele>34.1</ele>
        <time>2012-02-03T14:37:36Z</time>
      </trkpt>
      <trkpt lat="46.46747" lon="-1.48618">
        <ele>34.2</ele>
        <time>2012-02-03T14:37:49Z</time>
      </trkpt>
      <trkpt lat="46.46768" lon="-1.48628">
        <ele>34.4</ele>
        <time>2012-02-03T14:38:09Z</time>
      </trkpt>
      <trkpt lat="46.46781" lon="-1.48635">
        <ele>34.5</ele>
        <time>2012-02-03T14:38:23Z</time>
      </trkpt>
      <trkpt lat="46.46798" lon="-1.48639">
        <ele>34.6</ele>
        <time>2012-02-03T14:38:34Z</time>
      </trkpt>
      <trkpt lat="46.46814" lon="-1.48641">
        <ele>34.8</ele>
        <time>2012-02-03T14:38:48Z</time>
      </trkpt>
      <trkpt lat="46.4683" lon="-1.48658">
        <ele>34.9</ele>
        <time>2012-02-03T14:38:58Z</time>
      </trkpt>
      <trkpt lat="46.4684" lon="-1.48674">
        <ele>35</ele>
        <time>2012-02-03T14:39:14Z</time>
      </trkpt>
      <trkpt lat="46.4685" lon="-1.48692">
        <ele>35.1</ele>
        <time>2012-02-03T14:39:27Z</time>
      </trkpt>
      <trkpt lat="46.46859" lon="-1.48707">
        <ele>35.3</ele>
        <time>2012-02-03T14:39:39Z</time>
      </trkpt>
      <trkpt lat="46.46867" lon="-1.48731">
        <ele>35.4</ele>
        <time>2012-02-03T14:39:52Z</time>
      </trkpt>
      <trkpt lat="46.46868" lon="-1.48756">
        <ele>35.5</ele>
        <time>2012-02-03T14:40:07Z</time>
      </trkpt>
      <trkpt lat="46.46873" lon="-1.48776">
        <ele>35.7</ele>
        <time>2012-02-03T14:40:21Z</time>
      </trkpt>
      <trkpt lat="46.46877" lon="-1.48795">
        <ele>35.8</ele>
        <time>2012-02-03T14:40:32Z</time>
      </trkpt>
      <trkpt lat="46.4688" lon="-1.48815">
        <ele>35.9</ele>
        <time>2012-02-03T14:40:45Z</time>
      </trkpt>
      <trkpt lat="46.46881" lon="-1.48835">
        <ele>36</ele>
        <time>2012-02-03T14:40:56Z</time>
      </trkpt>
      <trkpt lat="46.46882" lon="-1.48855">
        <ele>36.1</ele>
        <time>2012-02-03T14:41:07Z</time>
      </trkpt>
      <trkpt lat="46.46884" lon="-1.48885">
        <ele>36.3</ele>
        <time>2012-02-03T14:41:20Z</time>
      </trkpt>
      <trkpt lat="46.46884" lon="-1.48909">
        <ele>36.4</ele>
        <time>2012-02-03T14:41:37Z</time>
      </trkpt>
      <trkpt lat="46.46888" lon="-1.4893">
        <ele>36.6</ele>
        <time>2012-02-03T14:41:53Z</time>
      </trkpt>
      <trkpt lat="46.46893" lon="-1.4895">
        <ele>36.7</ele>
        <time>2012-02-03T14:42:08Z</time>
      </trkpt>
      <trkpt lat="46.46896" lon="-1.48969">
        <ele>36.8</ele>
        <time>2012-02-03T14:42:19Z</time>
      </trkpt>
      <trkpt lat="46.46901" lon="-1.48988">
        <ele>36.9</ele>
        <time>2012-02-03T14:42:29Z</time>
      </trkpt>
      <trkpt lat="46.46906" lon="-1.49008">
        <ele>37.1</ele>
        <time>2012-02-03T14:42:41Z</time>
      </trkpt>
      <trkpt lat="46.46912" lon="-1.49029">
        <ele>37.2</ele>
        <time>2012-02-03T14:42:54Z</time>
      </trkpt>
      <trkpt lat="46.46918" lon="-1.49048">
        <ele>37.3</ele>
        <time>2012-02-03T14:43:06Z</time>
      </trkpt>
      <trkpt lat="46.46923" lon="-1.49068">
        <ele>37.4</ele>
        <time>2012-02-03T14:43:20Z</time>
      </trkpt>
      <trkpt lat="46.46926" lon="-1.49088">
        <ele>37.6</ele>
        <time>2012-02-03T14:43:35Z</time>
      </trkpt>
      <trkpt lat="46.46932" lon="-1.49107">
        <ele>37.7</ele>
        <time>2012-02-03T14:43:49Z</time>
      </trkpt>
      <trkpt lat="46.46935" lon="-1.49131">
        <ele>37.9</ele>
        <time>2012-02-03T14:44:05Z</time>
      </trkpt>
      <trkpt lat="46.4693" lon="-1.49151">
        <ele>38</ele>
        <time>2012-02-03T14:44:19Z</time>
      </trkpt>
      <trkpt lat="46.46929" lon="-1.49169">
        <ele>38.1</ele>
        <time>2012-02-03T14:44:27Z</time>
      </trkpt>
      <trkpt lat="46.46935" lon="-1.49192">
        <ele>38.2</ele>
        <time>2012-02-03T14:44:41Z</time>
      </trkpt>
      <trkpt lat="46.4695" lon="-1.49206">
        <ele>38.3</ele>
        <time>2012-02-03T14:44:52Z</time>
      </trkpt>
      <trkpt lat="46.46957" lon="-1.49222">
        <ele>38.5</ele>
        <time>2012-02-03T14:45:11Z</time>
      </trkpt>
      <trkpt lat="46.46946" lon="-1.49244">
        <ele>38.7</ele>
        <time>2012-02-03T14:45:26Z</time>
      </trkpt>
      <trkpt lat="46.4693" lon="-1.49265">
        <ele>38.8</ele>
        <time>2012-02-03T14:45:41Z</time>
      </trkpt>
      <trkpt lat="46.4692" lon="-1.4928">
        <ele>39</ele>
        <time>2012-02-03T14:45:55Z</time>
      </trkpt>
      <trkpt lat="46.46917" lon="-1.49289">
        <ele>39</ele>
        <time>2012-02-03T14:46:01Z</time>
      </trkpt>
      <trkpt lat="46.46922" lon="-1.49307">
        <ele>39.1</ele>
        <time>2012-02-03T14:46:12Z</time>
      </trkpt>
      <trkpt lat="46.46934" lon="-1.4932">
        <ele>39.2</ele>
        <time>2012-02-03T14:46:22Z</time>
      </trkpt>
      <trkpt lat="46.46944" lon="-1.49334">
        <ele>39.4</ele>
        <time>2012-02-03T14:46:36Z</time>
      </trkpt>
      <trkpt lat="46.46955" lon="-1.49348">
        <ele>39.5</ele>
        <time>2012-02-03T14:46:51Z</time>
      </trkpt>
      <trkpt lat="46.46965" lon="-1.49364">
        <ele>39.7</ele>
        <time>2012-02-03T14:47:05Z</time>
      </trkpt>
      <trkpt lat="46.46975" lon="-1.49383">
        <ele>39.8</ele>
        <time>2012-02-03T14:47:18Z</time>
      </trkpt>
      <trkpt lat="46.46987" lon="-1.49396">
        <ele>39.9</ele>
        <time>2012-02-03T14:47:31Z</time>
      </trkpt>
      <trkpt lat="46.47001" lon="-1.49393">
        <ele>40</ele>
        <time>2012-02-03T14:47:44Z</time>
      </trkpt>
      <trkpt lat="46.47012" lon="-1.49391">
        <ele>40.1</ele>
        <time>2012-02-03T14:47:56Z</time>
      </trkpt>
      <trkpt lat="46.47012" lon="-1.49391">
        <ele>40.1</ele>
        <time>2012-02-03T14:47:57Z</time>
      </trkpt>
    </trkseg>
  </trk>
</gpx>